Time;durP1;ratioP1;P1;durP2;ratioP2;P2;SDS_P1;SDS_P2;PMS_P1;PMS_P2;Temp;Humidity;BMP_temperature;BMP_pressure;BME280_temperature;BME280_humidity;BME280_pressure;Samples;Min_cycle;Max_cycle;Signal;HPM_P1;HPM_P2
2024/02/19 00:00:56;;;;;;;0.40;0.40;;;9.80;93.80;;;11.27;64.68;98524.88;5037468;28;20049;-47
2024/02/19 00:03:24;;;;;;;0.50;0.50;;;9.80;93.90;;;10.99;65.34;98517.66;5030688;28;20097;-49
2024/02/19 00:05:51;;;;;;;0.50;0.50;;;9.70;93.60;;;11.03;65.14;98528.84;5030871;28;20041;-48
2024/02/19 00:08:19;;;;;;;3.60;0.50;;;9.70;95.00;;;10.89;65.76;98545.25;5022423;28;20044;-50
2024/02/19 00:10:47;;;;;;;1.90;0.40;;;9.60;94.80;;;10.80;66.03;98536.31;5030598;28;20096;-47
2024/02/19 00:13:15;;;;;;;0.43;0.30;;;9.50;96.50;;;10.75;66.76;98536.72;5030550;28;20159;-50
2024/02/19 00:15:43;;;;;;;0.40;0.40;;;9.50;96.50;;;10.67;66.85;98525.09;5030571;28;20037;-47
2024/02/19 00:18:11;;;;;;;0.50;0.50;;;9.50;96.60;;;10.77;66.29;98532.09;5029946;28;20046;-49
2024/02/19 00:20:39;;;;;;;0.40;0.40;;;9.50;97.30;;;10.68;66.85;98526.75;5030591;28;20041;-50
2024/02/19 00:23:06;;;;;;;0.60;0.60;;;9.50;98.40;;;10.70;67.36;98519.47;5030303;28;20076;-48
2024/02/19 00:25:34;;;;;;;0.77;0.70;;;9.40;98.20;;;10.70;67.08;98525.66;5030656;28;20052;-52
2024/02/19 00:28:02;;;;;;;0.53;0.53;;;9.50;98.30;;;10.81;66.98;98522.81;5029667;28;20042;-48
2024/02/19 00:30:29;;;;;;;0.63;0.63;;;9.50;99.20;;;10.71;67.52;98539.81;5012963;28;20044;-49
2024/02/19 00:32:58;;;;;;;0.50;0.50;;;9.50;99.20;;;10.60;67.39;98549.63;5030288;28;20089;-50
2024/02/19 00:35:26;;;;;;;0.70;0.70;;;9.40;99.90;;;10.67;67.32;98533.09;5030479;28;20409;-52
2024/02/19 00:37:54;;;;;;;1.13;0.80;;;9.40;99.90;;;10.68;67.57;98553.41;5029910;28;20049;-49
2024/02/19 00:40:21;;;;;;;0.67;0.60;;;9.50;99.80;;;10.69;67.58;98539.94;5030432;28;20041;-52
2024/02/19 00:42:49;;;;;;;1.63;1.07;;;9.40;99.90;;;10.57;67.97;98528.59;5030435;28;20056;-49
2024/02/19 00:45:17;;;;;;;0.60;0.60;;;9.40;99.90;;;10.72;67.33;98517.50;5030204;28;20049;-48
2024/02/19 00:47:44;;;;;;;1.20;0.90;;;9.40;99.90;;;10.79;67.04;98516.81;5029792;28;20053;-49
2024/02/19 00:50:12;;;;;;;0.80;0.60;;;9.50;99.90;;;10.69;67.77;98525.78;5029624;28;20046;-50
2024/02/19 00:52:40;;;;;;;1.23;1.00;;;9.40;99.90;;;10.67;68.01;98541.91;5030339;28;20046;-49
2024/02/19 00:55:08;;;;;;;1.07;0.90;;;9.40;99.80;;;10.69;67.54;98533.78;5032923;28;20487;-48
2024/02/19 00:57:37;;;;;;;0.70;0.70;;;9.30;99.90;;;10.65;67.49;98546.53;5032964;28;20517;-51
2024/02/19 01:00:06;;;;;;;1.43;0.83;;;9.30;99.90;;;10.57;67.74;98552.56;5033669;28;20046;-48
2024/02/19 01:02:35;;;;;;;1.00;0.90;;;9.30;99.90;;;10.59;68.14;98536.44;5016325;28;20053;-51
2024/02/19 01:05:04;;;;;;;1.03;0.93;;;9.30;99.90;;;10.54;68.11;98554.66;5033238;28;20426;-52
2024/02/19 01:07:32;;;;;;;1.53;1.00;;;9.30;99.90;;;10.47;68.13;98550.84;5033414;28;20033;-48
2024/02/19 01:10:00;;;;;;;1.00;0.90;;;9.30;99.90;;;10.27;69.19;98556.09;5033676;28;20064;-49
2024/02/19 01:12:28;;;;;;;2.27;1.00;;;9.20;99.90;;;10.39;69.05;98562.19;5033539;28;20040;-52
2024/02/19 01:14:56;;;;;;;1.20;0.73;;;9.20;99.90;;;10.43;68.80;98561.78;5033792;28;20037;-51
2024/02/19 01:17:24;;;;;;;1.40;1.10;;;9.30;99.90;;;10.42;68.74;98554.78;5033237;28;20037;-49
2024/02/19 01:19:52;;;;;;;1.60;1.00;;;9.30;99.90;;;10.49;68.58;98555.06;5033266;28;20060;-49
2024/02/19 01:22:20;;;;;;;1.80;1.20;;;9.30;99.90;;;10.38;69.65;98565.84;5015997;28;20049;-52
2024/02/19 01:24:48;;;;;;;1.47;1.10;;;9.30;99.90;;;10.34;69.29;98559.94;5033237;28;20521;-51
2024/02/19 01:27:16;;;;;;;1.50;1.23;;;9.20;99.90;;;10.54;68.71;98552.81;4998920;28;20057;-49
2024/02/19 01:29:49;;;;;;;2.33;1.60;;;9.30;99.90;;;10.61;68.80;98548.63;5033514;28;20042;-49
2024/02/19 01:32:16;;;;;;;2.33;1.40;;;9.40;99.90;;;10.63;68.91;98541.34;5033604;28;20053;-50
2024/02/19 01:34:44;;;;;;;2.40;1.83;;;9.40;99.90;;;10.71;68.43;98539.81;5033474;28;20040;-50
2024/02/19 01:37:12;;;;;;;2.47;1.43;;;9.40;99.90;;;10.77;68.37;98532.09;5032574;28;20502;-52
2024/02/19 01:39:39;;;;;;;3.07;1.80;;;9.40;99.90;;;10.87;67.93;98536.56;5033280;28;20046;-50
2024/02/19 01:42:07;;;;;;;3.07;1.80;;;9.50;99.90;;;10.90;67.58;98536.31;5033223;28;20070;-49
2024/02/19 01:44:36;;;;;;;1.60;1.50;;;9.50;99.90;;;10.96;67.67;98541.06;5031020;28;20055;-51
2024/02/19 01:47:04;;;;;;;2.60;1.60;;;9.60;99.90;;;10.88;67.69;98544.44;5032444;28;20183;-51
2024/02/19 01:49:33;;;;;;;2.07;1.50;;;9.60;99.90;;;10.93;67.63;98534.16;5032955;28;20041;-49
2024/02/19 01:52:01;;;;;;;2.47;1.50;;;9.60;99.90;;;10.77;67.84;98539.25;5032888;28;20498;-49
2024/02/19 01:54:29;;;;;;;1.97;1.77;;;9.50;99.90;;;10.75;68.33;98544.72;5015436;28;20042;-51
2024/02/19 01:56:56;;;;;;;1.70;1.37;;;9.40;99.90;;;10.57;68.45;98539.25;5015156;28;20372;-49
2024/02/19 01:59:26;;;;;;;2.50;1.90;;;9.40;99.90;;;10.52;69.04;98553.94;5015352;28;20164;-49
2024/02/19 02:01:55;;;;;;;4.00;1.90;;;9.30;99.90;;;10.62;68.43;98544.13;5032941;28;20050;-48
2024/02/19 02:04:23;;;;;;;2.50;1.70;;;9.40;99.90;;;10.71;68.42;98545.97;5015268;28;20502;-50
2024/02/19 02:06:52;;;;;;;4.83;2.10;;;9.40;99.90;;;10.56;69.00;98547.38;5014418;28;20053;-49
2024/02/19 02:09:20;;;;;;;2.50;1.70;;;9.40;99.90;;;10.41;69.89;98552.25;5032570;28;20072;-50
2024/02/19 02:11:47;;;;;;;2.77;2.10;;;9.30;99.90;;;10.53;69.50;98550.31;5015279;28;20056;-50
2024/02/19 02:14:15;;;;;;;3.27;2.30;;;9.30;99.90;;;10.47;69.79;98548.19;5018893;28;20121;-51
2024/02/19 02:16:43;;;;;;;4.00;2.30;;;9.30;99.90;;;10.35;70.16;98544.81;5031753;28;20049;-50
2024/02/19 02:19:15;;;;;;;2.90;2.10;;;9.20;99.90;;;10.32;70.40;98551.25;5032483;28;20449;-49
2024/02/19 02:21:44;;;;;;;3.20;2.40;;;9.10;99.90;;;10.35;70.13;98544.81;5032595;28;20053;-50
2024/02/19 02:24:12;;;;;;;3.40;2.50;;;9.10;99.90;;;10.28;70.37;98549.00;5015062;28;20057;-50
2024/02/19 02:26:41;;;;;;;5.87;2.50;;;9.10;99.90;;;10.42;69.79;98548.63;5032078;28;20422;-50
2024/02/19 02:29:09;;;;;;;4.57;2.60;;;9.20;99.90;;;10.43;70.30;98537.00;5032038;28;20422;-48
2024/02/19 02:31:37;;;;;;;3.13;2.20;;;9.20;99.90;;;10.40;70.54;98542.59;5032358;28;20052;-48
2024/02/19 02:34:05;;;;;;;3.27;2.10;;;9.20;99.90;;;10.45;70.11;98537.69;5032518;28;20049;-51
2024/02/19 02:36:33;;;;;;;4.50;2.30;;;9.20;99.90;;;10.46;70.23;98536.72;5031749;28;20037;-50
2024/02/19 02:39:00;;;;;;;4.63;2.50;;;9.20;99.90;;;10.59;69.90;98541.78;5032304;28;20050;-49
2024/02/19 02:41:28;;;;;;;3.70;2.03;;;9.30;99.90;;;10.54;69.86;98541.34;5014602;28;20037;-47
2024/02/19 02:43:56;;;;;;;3.73;2.40;;;9.30;99.90;;;10.53;70.13;98540.50;5031377;28;20065;-49
2024/02/19 02:46:24;;;;;;;5.00;2.30;;;9.30;99.90;;;10.55;69.80;98540.38;5031190;28;20057;-49
2024/02/19 02:48:51;;;;;;;3.73;2.37;;;9.30;99.90;;;10.64;69.93;98537.72;5031684;28;20046;-48
2024/02/19 02:51:20;;;;;;;4.73;3.20;;;9.30;99.90;;;10.63;70.00;98530.69;5030881;28;20072;-48
2024/02/19 02:53:47;;;;;;;4.60;2.93;;;9.30;99.90;;;10.68;69.89;98530.25;5031711;28;20475;-51
2024/02/19 02:56:21;;;;;;;5.13;2.80;;;9.40;99.90;;;10.80;69.64;98530.97;5031366;28;20068;-48
2024/02/19 02:58:49;;;;;;;4.50;2.67;;;9.40;99.90;;;10.69;69.70;98534.63;5013987;28;20050;-53
2024/02/19 03:01:21;;;;;;;3.93;2.50;;;9.40;99.90;;;10.75;69.60;98536.72;5031489;28;20140;-51
2024/02/19 03:03:49;;;;;;;3.33;2.57;;;9.30;99.90;;;10.74;69.46;98526.19;5031518;28;20045;-50
2024/02/19 03:06:17;;;;;;;3.47;2.17;;;9.40;99.90;;;10.60;70.41;98536.31;5031047;28;20422;-49
2024/02/19 03:08:45;;;;;;;4.00;2.90;;;9.40;99.90;;;10.62;70.01;98541.47;5031319;28;20038;-50
2024/02/19 03:11:13;;;;;;;3.13;2.30;;;9.30;99.90;;;10.68;69.83;98537.41;5031265;28;20049;-49
2024/02/19 03:13:41;;;;;;;6.70;2.80;;;9.30;99.90;;;10.74;70.13;98539.50;5031459;28;20042;-49
2024/02/19 03:16:09;;;;;;;5.07;3.47;;;9.40;99.90;;;10.65;70.00;98533.22;5030449;28;20045;-48
2024/02/19 03:18:37;;;;;;;3.60;2.80;;;9.40;99.90;;;10.61;70.21;98537.16;5012755;28;20046;-49
2024/02/19 03:21:07;;;;;;;5.50;3.37;;;9.30;99.90;;;10.57;70.37;98536.59;5030964;28;20052;-50
2024/02/19 03:23:35;;;;;;;4.50;3.13;;;9.30;99.90;;;10.57;70.45;98549.91;5031087;28;20053;-50
2024/02/19 03:26:04;;;;;;;4.03;3.30;;;9.30;99.90;;;10.52;70.31;98536.16;5030934;28;20050;-49
2024/02/19 03:28:32;;;;;;;5.10;3.83;;;9.30;99.90;;;10.48;70.54;98545.41;5030930;28;20049;-50
2024/02/19 03:31:00;;;;;;;4.57;3.20;;;9.20;99.90;;;10.38;71.13;98536.56;5030884;28;20052;-48
2024/02/19 03:33:28;;;;;;;5.70;3.23;;;9.20;99.90;;;10.36;71.35;98541.19;5030162;28;20057;-48
2024/02/19 03:35:56;;;;;;;4.37;3.13;;;9.20;99.90;;;10.34;71.12;98549.31;5031329;28;20045;-50
2024/02/19 03:38:24;;;;;;;4.67;2.50;;;9.20;99.90;;;10.29;71.61;98554.16;5030795;28;20056;-49
2024/02/19 03:40:52;;;;;;;4.50;3.20;;;9.10;99.90;;;10.15;72.24;98554.56;5013033;28;20041;-50
2024/02/19 03:43:19;;;;;;;5.37;3.40;;;9.00;99.90;;;10.30;71.88;98553.22;5030903;28;20099;-48
2024/02/19 03:45:48;;;;;;;5.40;3.23;;;9.10;99.90;;;10.17;72.45;98550.78;5030803;28;20049;-49
2024/02/19 03:48:16;;;;;;;5.47;3.83;;;9.10;99.90;;;10.27;72.07;98552.63;5030152;28;20049;-47
2024/02/19 03:50:43;;;;;;;5.27;3.20;;;9.10;99.90;;;10.33;71.98;98560.06;5030894;28;20045;-47
2024/02/19 03:53:11;;;;;;;4.50;3.00;;;9.10;99.90;;;10.37;71.82;98558.81;5030291;28;20071;-51
2024/02/19 03:55:39;;;;;;;4.83;2.87;;;9.10;99.90;;;10.44;72.06;98544.00;5030837;28;20041;-49
2024/02/19 03:58:08;;;;;;;6.10;3.30;;;9.20;99.90;;;10.52;71.53;98544.13;5021962;28;20045;-50
2024/02/19 04:00:35;;;;;;;5.63;3.33;;;9.20;99.90;;;10.53;72.10;98545.84;5030442;28;20053;-48
2024/02/19 04:03:03;;;;;;;6.90;4.80;;;9.20;99.90;;;10.61;71.27;98547.78;5030538;28;20056;-49
2024/02/19 04:05:31;;;;;;;5.90;3.83;;;9.20;99.90;;;10.64;71.20;98543.03;5030229;28;20052;-50
2024/02/19 04:07:59;;;;;;;3.73;3.20;;;9.30;99.90;;;10.67;70.94;98538.41;5030072;28;20045;-47
2024/02/19 04:10:26;;;;;;;6.07;3.30;;;9.40;99.90;;;10.56;71.37;98542.03;5030484;28;20345;-46
2024/02/19 04:12:54;;;;;;;3.60;3.23;;;9.30;99.90;;;10.54;71.14;98539.50;5029938;28;20049;-49
2024/02/19 04:15:22;;;;;;;4.77;3.50;;;9.30;99.90;;;10.35;71.85;98534.16;5030677;28;20045;-47
2024/02/19 04:17:49;;;;;;;4.70;3.30;;;9.10;99.90;;;10.47;71.43;98548.19;5030325;28;20056;-46
2024/02/19 04:20:18;;;;;;;4.40;2.47;;;9.20;99.90;;;10.37;71.77;98542.84;5030353;28;20057;-49
2024/02/19 04:22:45;;;;;;;6.20;3.77;;;9.10;99.90;;;10.36;71.43;98536.69;5030450;28;20049;-51
2024/02/19 04:25:14;;;;;;;4.50;3.33;;;9.10;99.90;;;10.24;71.76;98543.09;5030588;28;20056;-48
2024/02/19 04:27:41;;;;;;;4.10;3.20;;;9.10;99.90;;;10.17;72.17;98549.94;5030145;28;20045;-49
2024/02/19 04:30:09;;;;;;;6.87;3.60;;;9.10;99.90;;;10.06;72.39;98548.22;5033313;28;20049;-46
2024/02/19 04:32:37;;;;;;;6.67;4.37;;;9.00;99.90;;;10.06;71.81;98548.22;5034138;28;20777;-47
2024/02/19 04:35:05;;;;;;;5.30;3.23;;;8.90;99.90;;;10.15;71.70;98550.06;5034386;28;20391;-47
2024/02/19 04:37:33;;;;;;;4.23;3.17;;;9.00;99.90;;;10.16;71.29;98567.72;5034081;28;20045;-49
2024/02/19 04:40:02;;;;;;;5.73;3.47;;;9.00;99.90;;;10.14;71.02;98564.38;5016515;28;20045;-49
2024/02/19 04:42:30;;;;;;;5.80;3.00;;;8.90;99.90;;;10.05;71.37;98570.50;5016319;28;20050;-47
2024/02/19 04:44:57;;;;;;;6.70;3.63;;;8.90;99.90;;;10.04;71.11;98572.31;5032701;28;20057;-47
2024/02/19 04:47:25;;;;;;;4.63;3.23;;;8.80;99.90;;;10.12;70.70;98568.97;5032859;28;20510;-48
2024/02/19 04:49:52;;;;;;;6.03;3.90;;;8.90;99.90;;;10.10;70.56;98576.25;5034131;28;20049;-47
2024/02/19 04:52:20;;;;;;;7.40;5.27;;;8.90;99.90;;;10.11;70.92;98582.41;5034308;28;20057;-48
2024/02/19 04:54:48;;;;;;;6.97;4.80;;;8.80;99.90;;;10.01;70.77;98591.19;5034219;28;20457;-47
2024/02/19 04:57:15;;;;;;;5.07;4.07;;;8.80;99.90;;;9.93;71.38;98603.50;5033653;28;20050;-47
2024/02/19 04:59:43;;;;;;;9.33;3.77;;;8.70;99.90;;;9.99;71.00;98597.63;5033709;28;20044;-49
2024/02/19 05:02:11;;;;;;;7.50;3.57;;;8.80;99.90;;;9.86;71.73;98604.00;5015691;28;20049;-47
2024/02/19 05:04:39;;;;;;;7.10;3.90;;;8.80;99.90;;;9.80;71.72;98599.22;5033705;28;20038;-49
2024/02/19 05:07:07;;;;;;;7.47;3.97;;;8.70;99.90;;;9.96;71.30;98597.91;5033383;28;20041;-50
2024/02/19 05:09:35;;;;;;;8.83;4.17;;;8.80;99.90;;;10.05;70.97;98595.28;5033371;28;20045;-47
2024/02/19 05:12:04;;;;;;;8.07;4.10;;;8.80;99.90;;;9.96;71.22;98604.03;5033763;28;20045;-47
2024/02/19 05:14:32;;;;;;;6.93;3.27;;;8.80;99.90;;;9.92;71.76;98604.47;5033868;28;20486;-47
2024/02/19 05:17:00;;;;;;;7.60;3.70;;;8.80;99.90;;;9.96;71.29;98632.47;5015744;28;20072;-49
2024/02/19 05:19:28;;;;;;;4.87;3.60;;;8.80;99.90;;;10.00;70.97;98610.81;5033379;28;20046;-49
2024/02/19 05:21:55;;;;;;;6.13;3.30;;;8.80;99.90;;;10.03;70.75;98612.34;5033659;28;20529;-48
2024/02/19 05:24:23;;;;;;;6.20;3.47;;;8.80;99.90;;;10.04;71.00;98611.34;5033635;28;20052;-48
2024/02/19 05:26:51;;;;;;;7.63;3.60;;;8.80;99.90;;;9.96;70.41;98611.19;5025909;28;20045;-49
2024/02/19 05:29:19;;;;;;;13.43;4.90;;;8.80;99.90;;;9.82;70.96;98623.03;5033288;28;20056;-51
2024/02/19 05:31:47;;;;;;;5.43;3.17;;;8.70;99.90;;;9.78;70.91;98616.31;5033578;28;20064;-48
2024/02/19 05:34:15;;;;;;;6.70;3.47;;;8.70;99.90;;;9.83;70.97;98624.75;5015961;28;20041;-49
2024/02/19 05:36:43;;;;;;;7.53;3.30;;;8.70;99.90;;;9.89;70.62;98626.00;5033010;28;20045;-48
2024/02/19 05:39:10;;;;;;;4.80;3.20;;;8.70;99.90;;;9.88;70.56;98627.81;5033349;28;20041;-48
2024/02/19 05:41:38;;;;;;;6.90;3.10;;;8.70;99.90;;;9.92;70.23;98623.06;5031894;28;20060;-48
2024/02/19 05:44:06;;;;;;;3.97;3.00;;;8.70;99.90;;;9.89;70.57;98626.84;5033240;28;20045;-49
2024/02/19 05:46:34;;;;;;;7.57;3.60;;;8.70;99.90;;;9.92;70.62;98621.25;5032941;28;20053;-50
2024/02/19 05:49:02;;;;;;;7.03;4.23;;;8.70;99.90;;;9.95;70.61;98633.47;5032404;28;20072;-50
2024/02/19 05:51:29;;;;;;;5.20;3.47;;;8.70;99.90;;;10.10;70.24;98629.47;5014738;28;20437;-51
2024/02/19 05:53:57;;;;;;;4.50;3.33;;;8.80;99.90;;;10.11;69.74;98625.00;5032888;28;20045;-49
2024/02/19 05:56:26;;;;;;;8.27;3.80;;;8.80;99.90;;;10.17;69.61;98627.09;5032348;28;20517;-48
2024/02/19 05:58:54;;;;;;;4.30;2.70;;;8.90;99.90;;;10.07;69.83;98631.56;5025026;28;20413;-52
2024/02/19 06:01:21;;;;;;;5.03;2.90;;;8.80;99.90;;;10.02;70.02;98635.47;5032743;28;20045;-48
2024/02/19 06:03:49;;;;;;;5.77;3.03;;;8.80;99.90;;;10.02;69.39;98643.44;5039287;28;20053;-50
2024/02/19 06:06:17;;;;;;;5.03;2.83;;;8.80;99.90;;;10.03;69.20;98639.78;5032652;28;20451;-48
2024/02/19 06:08:45;;;;;;;3.97;2.50;;;8.80;99.90;;;10.15;69.49;98635.22;5015052;28;20056;-50
2024/02/19 06:11:12;;;;;;;4.77;2.70;;;8.80;99.90;;;10.19;68.88;98627.81;5032174;28;20049;-53
2024/02/19 06:13:40;;;;;;;5.27;2.60;;;8.90;99.90;;;10.09;68.97;98648.22;5032593;28;20410;-49
2024/02/19 06:16:08;;;;;;;6.43;3.17;;;8.80;99.90;;;9.96;69.07;98651.94;5032379;28;20387;-48
2024/02/19 06:18:35;;;;;;;3.20;2.60;;;8.70;99.90;;;9.88;69.11;98645.59;5032221;28;20037;-49
2024/02/19 06:21:03;;;;;;;5.37;2.90;;;8.60;99.90;;;10.00;68.76;98645.41;5032584;28;20041;-48
2024/02/19 06:23:31;;;;;;;4.40;2.83;;;8.70;99.90;;;9.97;69.05;98648.31;5031956;28;20395;-48
2024/02/19 06:26:00;;;;;;;4.43;3.30;;;8.70;99.90;;;10.05;68.96;98652.97;5031813;28;20498;-49
2024/02/19 06:28:28;;;;;;;5.97;3.60;;;8.70;99.90;;;10.05;69.35;98656.47;5032441;28;20049;-48
2024/02/19 06:30:56;;;;;;;4.83;3.37;;;8.70;99.90;;;9.99;69.24;98658.81;5006247;28;20045;-50
2024/02/19 06:33:23;;;;;;;4.90;3.10;;;8.70;99.90;;;10.02;69.03;98654.09;5014723;28;20053;-52
2024/02/19 06:35:51;;;;;;;5.03;3.47;;;8.70;99.90;;;10.01;69.30;98667.50;5031864;28;20045;-50
2024/02/19 06:38:19;;;;;;;5.57;4.33;;;8.70;99.90;;;10.10;69.22;98658.75;5031512;28;20049;-51
2024/02/19 06:40:46;;;;;;;3.90;3.33;;;8.80;99.90;;;10.07;69.31;98668.81;5032020;28;20052;-52
2024/02/19 06:43:15;;;;;;;5.30;2.80;;;8.80;99.90;;;9.94;69.50;98667.19;5032156;28;20064;-52
2024/02/19 06:45:43;;;;;;;4.27;3.20;;;8.70;99.90;;;9.78;69.14;98664.16;5031704;28;20414;-53
2024/02/19 06:48:11;;;;;;;4.47;3.17;;;8.70;99.90;;;9.91;69.19;98661.31;5031122;28;20048;-51
2024/02/19 06:50:39;;;;;;;6.37;3.17;;;8.60;99.90;;;9.77;69.21;98665.13;5031486;28;20495;-49
2024/02/19 06:53:07;;;;;;;4.80;2.40;;;8.60;99.90;;;9.88;69.05;98667.72;5031755;28;20048;-51
2024/02/19 06:55:34;;;;;;;3.37;2.20;;;8.60;99.90;;;9.86;68.53;98667.84;5031565;28;20037;-49
2024/02/19 06:58:02;;;;;;;3.50;2.47;;;8.70;99.90;;;9.91;68.50;98674.63;5012704;28;20433;-49
2024/02/19 07:00:29;;;;;;;4.23;1.97;;;8.70;99.90;;;9.98;68.04;98676.59;5031872;28;20509;-48
2024/02/19 07:02:57;;;;;;;3.60;2.43;;;8.70;99.90;;;9.83;67.92;98676.09;5032221;28;20054;-50
2024/02/19 07:05:25;;;;;;;4.53;2.10;;;8.60;99.90;;;10.06;67.62;98689.22;5032050;28;20065;-52
2024/02/19 07:07:52;;;;;;;4.07;2.57;;;8.70;99.90;;;9.98;67.96;98687.25;5031574;28;20053;-50
2024/02/19 07:10:20;;;;;;;4.57;2.93;;;8.70;99.90;;;10.07;67.56;98701.56;5031382;28;20041;-52
2024/02/19 07:12:48;;;;;;;4.00;2.23;;;8.70;99.90;;;9.84;67.48;98703.53;5031595;28;20042;-52
2024/02/19 07:15:15;;;;;;;5.17;1.97;;;8.60;99.90;;;9.87;67.27;98711.25;5031604;28;20037;-48
2024/02/19 07:17:43;;;;;;;3.23;1.90;;;8.60;99.90;;;9.98;67.16;98710.31;5031028;28;20414;-49
2024/02/19 07:20:11;;;;;;;6.03;2.43;;;8.60;99.90;;;10.09;67.03;98712.91;5014217;28;20048;-51
2024/02/19 07:22:39;;;;;;;4.10;1.87;;;8.70;99.90;;;9.84;66.56;98717.66;5031022;28;20491;-49
2024/02/19 07:25:07;;;;;;;2.53;1.80;;;8.60;98.70;;;10.01;66.71;98718.06;5031186;28;20066;-48
2024/02/19 07:27:47;;;;;;;3.77;2.03;;;8.70;99.90;;;10.03;66.11;98708.97;5030825;28;20426;-51
2024/02/19 07:30:15;;;;;;;5.10;1.87;;;8.70;98.50;;;10.12;65.89;98710.00;5031224;28;20056;-53
2024/02/19 07:32:42;;;;;;;6.30;2.03;;;8.80;97.70;;;10.04;65.79;98710.66;5013287;28;20094;-51
2024/02/19 07:35:10;;;;;;;4.83;2.20;;;8.70;97.50;;;10.10;65.72;98714.63;5031162;28;20048;-49
2024/02/19 07:37:38;;;;;;;4.27;2.00;;;8.70;97.80;;;10.13;65.37;98717.00;5030319;28;20042;-48
2024/02/19 07:40:06;;;;;;;3.10;1.47;;;8.80;94.80;;;10.04;64.71;98723.97;5029472;28;20044;-50
2024/02/19 07:42:36;;;;;;;3.80;1.60;;;8.70;95.00;;;9.91;64.27;98725.97;5031053;28;20049;-50
2024/02/19 07:45:06;;;;;;;3.43;1.50;;;8.60;94.10;;;9.95;63.85;98739.88;5030873;28;20438;-51
2024/02/19 07:47:33;;;;;;;2.63;1.33;;;8.60;92.70;;;9.85;64.07;98742.47;5026914;28;20452;-49
2024/02/19 07:50:01;;;;;;;1.87;1.73;;;8.60;93.20;;;9.98;63.41;98750.22;5030870;28;20074;-49
2024/02/19 07:52:29;;;;;;;2.47;1.70;;;8.70;91.50;;;10.02;64.46;98749.00;5030848;28;20537;-50
2024/02/19 07:54:57;;;;;;;2.60;1.77;;;8.70;94.00;;;10.11;64.00;98771.31;5030879;28;20041;-48
2024/02/19 07:57:24;;;;;;;4.13;1.30;;;8.80;94.00;;;9.95;63.51;98764.66;5030146;28;20037;-49
2024/02/19 07:59:52;;;;;;;4.83;1.70;;;8.70;90.50;;;10.07;63.22;98767.25;5012470;28;20064;-49
2024/02/19 08:02:20;;;;;;;1.80;1.47;;;8.70;92.20;;;10.06;63.33;98771.69;5030600;28;20053;-51
2024/02/19 08:04:47;;;;;;;2.80;1.40;;;8.80;90.50;;;9.98;63.18;98771.50;5012717;28;20073;-49
2024/02/19 08:07:15;;;;;;;1.57;1.30;;;8.70;90.40;;;10.14;62.99;98766.59;5012236;28;20061;-50
2024/02/19 08:09:43;;;;;;;3.13;1.50;;;8.80;92.20;;;10.29;63.01;98767.06;5030455;28;20442;-51
2024/02/19 08:12:12;;;;;;;2.13;1.33;;;8.90;90.90;;;10.36;62.93;98772.75;5013238;28;20045;-51
2024/02/19 08:14:39;;;;;;;4.00;1.87;;;9.00;90.80;;;10.41;62.42;98767.88;5030618;28;20052;-50
2024/02/19 08:17:07;;;;;;;3.27;1.37;;;9.10;90.20;;;10.50;62.67;98771.56;5030044;28;20037;-50
2024/02/19 08:19:36;;;;;;;2.13;1.47;;;9.10;89.50;;;10.56;62.19;98782.50;5030193;28;20037;-52
2024/02/19 08:22:03;;;;;;;1.23;1.07;;;9.10;89.50;;;10.35;61.15;98787.91;5030597;28;20048;-51
2024/02/19 08:24:31;;;;;;;3.40;1.40;;;9.00;87.60;;;10.35;61.38;98803.00;5030158;28;20050;-49
2024/02/19 08:26:59;;;;;;;6.40;1.70;;;9.00;87.30;;;10.37;61.59;98799.25;5030266;28;20422;-49
2024/02/19 08:29:26;;;;;;;3.03;1.17;;;8.90;87.80;;;10.39;61.90;98807.09;5030778;28;20052;-50
2024/02/19 08:31:54;;;;;;;3.80;1.30;;;9.00;89.00;;;10.26;61.51;98793.97;5030265;28;20049;-51
2024/02/19 08:34:25;;;;;;;2.80;1.30;;;8.90;88.40;;;10.25;61.41;98802.91;5012565;28;20057;-51
2024/02/19 08:36:53;;;;;;;3.53;1.43;;;9.00;87.60;;;10.34;61.01;98807.50;5029965;28;20445;-51
2024/02/19 08:39:20;;;;;;;3.57;1.50;;;9.00;87.40;;;10.34;61.11;98807.50;5030177;28;20049;-49
2024/02/19 08:41:48;;;;;;;1.83;1.40;;;9.00;86.90;;;10.16;60.70;98812.53;5030458;28;20046;-50
2024/02/19 08:44:16;;;;;;;2.47;1.50;;;8.90;86.60;;;10.22;61.19;98817.34;5030345;28;20064;-49
2024/02/19 08:46:43;;;;;;;3.23;1.90;;;8.90;87.00;;;10.18;61.35;98817.75;5029979;28;20415;-50
2024/02/19 08:49:11;;;;;;;6.00;2.77;;;8.80;88.70;;;10.23;61.76;98824.34;5030227;28;20042;-50
2024/02/19 08:51:39;;;;;;;3.47;1.80;;;8.80;89.90;;;10.17;61.38;98824.84;5030352;28;20121;-52
2024/02/19 08:54:06;;;;;;;1.90;1.47;;;8.90;88.30;;;10.21;61.45;98820.97;5030140;28;20048;-49
2024/02/19 08:56:34;;;;;;;6.03;1.90;;;8.90;87.80;;;10.31;61.48;98825.53;5029842;28;20041;-54
2024/02/19 08:59:03;;;;;;;4.57;1.20;;;8.90;88.30;;;10.18;61.46;98820.41;5030548;28;20410;-50
2024/02/19 09:01:31;;;;;;;3.20;1.53;;;8.80;86.80;;;10.24;61.42;98825.19;5030149;28;20041;-51
2024/02/19 09:03:59;;;;;;;2.67;1.63;;;8.90;88.70;;;10.39;61.32;98831.03;5030227;28;20049;-49
2024/02/19 09:06:27;;;;;;;3.30;2.40;;;9.00;87.60;;;10.27;60.85;98826.75;5029060;28;20371;-52
2024/02/19 09:08:55;;;;;;;3.47;1.60;;;9.00;87.40;;;10.32;60.77;98827.25;5030370;28;20080;-53
2024/02/19 09:11:22;;;;;;;4.13;1.73;;;9.00;85.90;;;10.18;60.98;98833.72;5030093;28;20422;-50
2024/02/19 09:13:50;;;;;;;6.07;2.00;;;8.90;87.40;;;10.25;60.60;98832.19;5029156;28;20057;-53
2024/02/19 09:16:17;;;;;;;5.10;1.70;;;9.00;85.50;;;10.34;60.43;98823.47;5013686;28;20494;-49
2024/02/19 09:18:45;;;;;;;4.23;2.00;;;9.00;86.80;;;10.33;60.59;98828.91;5034112;28;20045;-49
2024/02/19 09:21:13;;;;;;;4.87;1.43;;;9.00;86.30;;;10.34;60.77;98825.28;5033753;28;20042;-49
2024/02/19 09:23:40;;;;;;;4.10;1.40;;;9.00;87.30;;;10.48;60.98;98830.25;5034092;28;20053;-48
2024/02/19 09:26:13;;;;;;;3.30;1.70;;;9.10;88.20;;;10.49;60.71;98825.78;5005674;28;20048;-48
2024/02/19 09:28:41;;;;;;;4.13;2.70;;;9.20;87.40;;;10.61;60.58;98830.06;5027946;28;20049;-52
2024/02/19 09:31:08;;;;;;;6.27;1.70;;;9.30;86.70;;;10.57;59.64;98832.16;5028388;28;20041;-49
2024/02/19 09:33:36;;;;;;;1.53;1.20;;;9.30;83.50;;;10.61;59.68;98838.06;5027692;28;20537;-53
2024/02/19 09:36:05;;;;;;;3.20;1.70;;;9.30;84.20;;;10.41;59.50;98827.31;5012706;28;20045;-49
2024/02/19 09:38:32;;;;;;;2.93;1.33;;;9.20;82.90;;;10.53;59.93;98828.06;5033733;28;20044;-50
2024/02/19 09:41:04;;;;;;;3.27;1.47;;;9.30;85.60;;;10.68;59.63;98831.19;5033112;28;20049;-49
2024/02/19 09:43:32;;;;;;;2.43;1.63;;;9.40;84.40;;;10.62;58.75;98829.06;5016118;28;20072;-49
2024/02/19 09:46:03;;;;;;;4.10;1.43;;;9.40;82.30;;;10.55;59.56;98839.41;5031807;28;20056;-48
2024/02/19 09:48:32;;;;;;;6.37;1.90;;;9.30;83.10;;;10.53;59.48;98837.88;4999931;28;20045;-52
2024/02/19 09:51:03;;;;;;;6.43;1.80;;;9.30;83.90;;;10.50;59.16;98852.28;5032395;28;20054;-50
2024/02/19 09:53:34;;;;;;;3.83;1.60;;;9.40;83.30;;;10.22;59.90;98849.28;5032878;28;20041;-49
2024/02/19 09:56:02;;;;;;;4.53;1.83;;;9.40;84.50;;;10.34;60.76;98843.94;5015397;28;20517;-50
2024/02/19 09:58:31;;;;;;;3.40;1.50;;;9.40;84.50;;;10.58;60.49;98846.28;5032823;28;20049;-52
2024/02/19 10:00:58;;;;;;;3.73;1.70;;;9.60;84.10;;;10.68;60.56;98857.00;5032639;28;20387;-52
2024/02/19 10:03:26;;;;;;;5.20;2.77;;;9.70;84.60;;;10.77;59.59;98867.69;5015234;28;20406;-51
2024/02/19 10:05:54;;;;;;;3.53;1.70;;;9.70;82.30;;;10.75;59.09;98861.66;5031974;28;20046;-50
2024/02/19 10:08:23;;;;;;;2.80;1.60;;;9.70;81.50;;;10.76;58.92;98868.69;5024320;28;20048;-50
2024/02/19 10:10:57;;;;;;;5.80;1.63;;;9.60;82.00;;;10.79;59.09;98872.91;5032619;28;20471;-56
2024/02/19 10:13:26;;;;;;;4.93;2.00;;;9.60;83.30;;;10.59;58.86;98871.97;5015216;28;20049;-51
2024/02/19 10:15:54;;;;;;;10.17;1.90;;;9.40;83.50;;;10.61;59.17;98873.50;5032449;28;20052;-49
2024/02/19 10:18:21;;;;;;;5.53;2.10;;;9.40;84.10;;;10.48;59.67;98874.69;5030723;28;20129;-50
2024/02/19 10:20:53;;;;;;;2.93;1.40;;;9.30;84.10;;;10.54;59.83;98872.34;5014204;28;20410;-48
2024/02/19 10:23:20;;;;;;;2.77;1.80;;;9.30;84.60;;;10.52;59.13;98876.13;5032257;28;20053;-49
2024/02/19 10:25:51;;;;;;;4.93;2.77;;;9.30;83.90;;;10.33;59.33;98880.34;5032146;28;20056;-47
2024/02/19 10:28:21;;;;;;;4.70;1.50;;;9.20;82.80;;;10.39;59.03;98876.31;5021243;28;20045;-48
2024/02/19 10:30:50;;;;;;;8.37;1.67;;;9.20;83.40;;;10.23;60.15;98874.06;5027140;28;20052;-50